sensor_id;sensor_type;location;lat;lon;timestamp;pressure;altitude;pressure_sealevel;temperature;humidity
7888;BME280;3989;48.810;9.208;2023-08-20T00:01:27;99088.47;;;22.41;100.00
7888;BME280;3989;48.810;9.208;2023-08-20T00:03:55;99079.31;;;22.30;100.00
7888;BME280;3989;48.810;9.208;2023-08-20T00:06:22;99085.44;;;22.37;100.00
7888;BME280;3989;48.810;9.208;2023-08-20T00:08:49;99050.50;;;22.13;100.00
7888;BME280;3989;48.810;9.208;2023-08-20T00:11:16;99094.66;;;22.36;100.00
7888;BME280;3989;48.810;9.208;2023-08-20T00:13:43;99098.78;;;22.39;100.00
7888;BME280;3989;48.810;9.208;2023-08-20T00:16:11;99097.13;;;22.38;100.00
7888;BME280;3989;48.810;9.208;2023-08-20T00:18:38;99099.91;;;22.43;100.00
7888;BME280;3989;48.810;9.208;2023-08-20T00:21:06;99101.56;;;22.44;100.00
7888;BME280;3989;48.810;9.208;2023-08-20T00:23:33;99078.09;;;22.38;100.00
7888;BME280;3989;48.810;9.208;2023-08-20T00:26:00;99100.03;;;22.48;100.00
7888;BME280;3989;48.810;9.208;2023-08-20T00:28:27;99100.59;;;22.50;100.00
7888;BME280;3989;48.810;9.208;2023-08-20T00:30:54;99102.25;;;22.51;100.00
7888;BME280;3989;48.810;9.208;2023-08-20T00:33:22;99108.50;;;22.52;100.00
7888;BME280;3989;48.810;9.208;2023-08-20T00:35:48;99110.97;;;22.53;100.00
7888;BME280;3989;48.810;9.208;2023-08-20T00:38:15;99107.09;;;22.49;100.00
7888;BME280;3989;48.810;9.208;2023-08-20T00:40:42;99107.34;;;22.47;100.00
7888;BME280;3989;48.810;9.208;2023-08-20T00:43:08;99056.28;;;22.16;100.00
7888;BME280;3989;48.810;9.208;2023-08-20T00:45:35;99099.69;;;22.44;100.00
7888;BME280;3989;48.810;9.208;2023-08-20T00:48:04;99106.44;;;22.42;100.00
7888;BME280;3989;48.810;9.208;2023-08-20T00:50:32;99086.81;;;22.23;100.00
7888;BME280;3989;48.810;9.208;2023-08-20T00:52:59;99089.53;;;22.23;100.00
7888;BME280;3989;48.810;9.208;2023-08-20T00:55:27;99108.31;;;22.25;100.00
7888;BME280;3989;48.810;9.208;2023-08-20T00:57:54;99100.91;;;22.20;100.00
7888;BME280;3989;48.810;9.208;2023-08-20T01:00:23;99099.66;;;22.11;100.00
7888;BME280;3989;48.810;9.208;2023-08-20T01:02:49;99057.09;;;21.88;100.00
7888;BME280;3989;48.810;9.208;2023-08-20T01:05:18;99096.88;;;22.06;100.00
7888;BME280;3989;48.810;9.208;2023-08-20T01:08:19;99000.75;;;21.51;100.00
7888;BME280;3989;48.810;9.208;2023-08-20T01:10:56;99099.59;;;22.06;100.00
7888;BME280;3989;48.810;9.208;2023-08-20T01:13:24;99085.22;;;21.94;100.00
7888;BME280;3989;48.810;9.208;2023-08-20T01:15:50;99108.56;;;22.07;100.00
7888;BME280;3989;48.810;9.208;2023-08-20T01:18:17;99115.06;;;22.06;100.00
7888;BME280;3989;48.810;9.208;2023-08-20T01:20:47;99111.75;;;22.04;100.00
7888;BME280;3989;48.810;9.208;2023-08-20T01:24:00;99109.53;;;22.01;100.00
7888;BME280;3989;48.810;9.208;2023-08-20T01:26:56;99097.66;;;21.90;100.00
7888;BME280;3989;48.810;9.208;2023-08-20T01:29:28;99116.28;;;21.98;100.00
7888;BME280;3989;48.810;9.208;2023-08-20T01:31:55;99112.72;;;21.97;100.00
7888;BME280;3989;48.810;9.208;2023-08-20T01:34:22;99112.72;;;21.97;100.00
7888;BME280;3989;48.810;9.208;2023-08-20T01:36:49;99121.13;;;21.96;100.00
7888;BME280;3989;48.810;9.208;2023-08-20T01:39:16;99117.50;;;21.90;100.00
7888;BME280;3989;48.810;9.208;2023-08-20T01:41:44;99116.81;;;21.83;100.00
7888;BME280;3989;48.810;9.208;2023-08-20T01:44:11;99107.63;;;21.73;100.00
7888;BME280;3989;48.810;9.208;2023-08-20T01:46:39;99122.38;;;21.77;100.00
7888;BME280;3989;48.810;9.208;2023-08-20T01:49:05;99122.25;;;21.72;100.00
7888;BME280;3989;48.810;9.208;2023-08-20T01:51:32;99121.34;;;21.66;100.00
7888;BME280;3989;48.810;9.208;2023-08-20T01:53:58;99120.44;;;21.61;100.00
7888;BME280;3989;48.810;9.208;2023-08-20T01:56:25;99124.91;;;21.55;100.00
7888;BME280;3989;48.810;9.208;2023-08-20T01:58:52;99101.50;;;21.37;100.00
7888;BME280;3989;48.810;9.208;2023-08-20T02:01:19;99115.16;;;21.42;100.00
7888;BME280;3989;48.810;9.208;2023-08-20T02:03:47;99118.69;;;21.43;100.00
7888;BME280;3989;48.810;9.208;2023-08-20T02:06:13;98943.41;;;20.27;100.00
7888;BME280;3989;48.810;9.208;2023-08-20T02:08:40;98992.88;;;20.58;100.00
7888;BME280;3989;48.810;9.208;2023-08-20T02:11:06;99121.22;;;21.33;100.00
7888;BME280;3989;48.810;9.208;2023-08-20T02:13:33;99118.41;;;21.28;100.00
7888;BME280;3989;48.810;9.208;2023-08-20T02:16:00;99124.78;;;21.22;100.00
7888;BME280;3989;48.810;9.208;2023-08-20T02:18:27;98980.50;;;20.27;100.00
7888;BME280;3989;48.810;9.208;2023-08-20T02:20:55;99128.19;;;21.17;100.00
7888;BME280;3989;48.810;9.208;2023-08-20T02:23:22;99124.91;;;21.15;100.00
7888;BME280;3989;48.810;9.208;2023-08-20T02:25:49;99130.81;;;21.12;100.00
7888;BME280;3989;48.810;9.208;2023-08-20T02:28:15;99126.69;;;21.10;100.00
7888;BME280;3989;48.810;9.208;2023-08-20T02:30:43;99126.31;;;21.06;100.00
7888;BME280;3989;48.810;9.208;2023-08-20T02:33:10;99126.53;;;21.05;100.00
7888;BME280;3989;48.810;9.208;2023-08-20T02:35:37;99133.84;;;21.04;100.00
7888;BME280;3989;48.810;9.208;2023-08-20T02:38:05;99127.59;;;21.04;100.00
7888;BME280;3989;48.810;9.208;2023-08-20T02:40:32;99130.31;;;21.04;100.00
7888;BME280;3989;48.810;9.208;2023-08-20T02:42:58;99087.66;;;20.76;100.00
7888;BME280;3989;48.810;9.208;2023-08-20T02:45:25;99121.97;;;20.93;100.00
7888;BME280;3989;48.810;9.208;2023-08-20T02:47:52;99124.69;;;20.93;100.00
7888;BME280;3989;48.810;9.208;2023-08-20T02:50:18;99129.63;;;20.97;100.00
7888;BME280;3989;48.810;9.208;2023-08-20T02:52:45;99134.22;;;20.96;100.00
7888;BME280;3989;48.810;9.208;2023-08-20T02:55:13;99117.47;;;20.87;100.00
7888;BME280;3989;48.810;9.208;2023-08-20T02:57:40;99126.22;;;20.89;100.00
7888;BME280;3989;48.810;9.208;2023-08-20T03:00:07;99127.38;;;20.82;100.00
7888;BME280;3989;48.810;9.208;2023-08-20T03:02:36;99118.19;;;20.83;100.00
7888;BME280;3989;48.810;9.208;2023-08-20T03:05:05;99113.25;;;20.80;100.00
7888;BME280;3989;48.810;9.208;2023-08-20T03:07:32;99098.59;;;20.81;100.00
7888;BME280;3989;48.810;9.208;2023-08-20T03:09:59;99107.00;;;20.79;100.00
7888;BME280;3989;48.810;9.208;2023-08-20T03:12:27;99102.25;;;20.75;100.00
7888;BME280;3989;48.810;9.208;2023-08-20T03:14:53;99106.41;;;20.77;100.00
7888;BME280;3989;48.810;9.208;2023-08-20T03:17:20;99102.63;;;20.78;100.00
7888;BME280;3989;48.810;9.208;2023-08-20T03:19:54;99100.50;;;20.80;100.00
7888;BME280;3989;48.810;9.208;2023-08-20T03:22:22;99113.72;;;20.77;100.00
7888;BME280;3989;48.810;9.208;2023-08-20T03:24:49;99102.97;;;20.70;100.00
7888;BME280;3989;48.810;9.208;2023-08-20T03:27:16;99111.13;;;20.70;100.00
7888;BME280;3989;48.810;9.208;2023-08-20T03:29:44;99113.22;;;20.68;100.00
7888;BME280;3989;48.810;9.208;2023-08-20T03:32:11;99107.34;;;20.60;100.00
7888;BME280;3989;48.810;9.208;2023-08-20T03:34:38;99120.69;;;20.61;100.00
7888;BME280;3989;48.810;9.208;2023-08-20T03:37:05;99129.50;;;20.57;100.00
7888;BME280;3989;48.810;9.208;2023-08-20T03:39:31;99112.88;;;20.53;100.00
7888;BME280;3989;48.810;9.208;2023-08-20T03:41:58;99123.72;;;20.53;100.00
7888;BME280;3989;48.810;9.208;2023-08-20T03:44:24;99108.50;;;20.52;100.00
7888;BME280;3989;48.810;9.208;2023-08-20T03:46:53;99104.97;;;20.63;100.00
7888;BME280;3989;48.810;9.208;2023-08-20T03:49:19;99087.16;;;20.56;100.00
7888;BME280;3989;48.810;9.208;2023-08-20T03:51:46;99087.53;;;20.59;100.00
7888;BME280;3989;48.810;9.208;2023-08-20T03:54:12;99115.13;;;20.79;100.00
7888;BME280;3989;48.810;9.208;2023-08-20T03:56:39;99111.84;;;20.77;100.00
7888;BME280;3989;48.810;9.208;2023-08-20T03:59:06;99112.63;;;20.78;100.00
7888;BME280;3989;48.810;9.208;2023-08-20T04:01:33;99109.56;;;20.74;100.00
7888;BME280;3989;48.810;9.208;2023-08-20T04:04:02;99116.53;;;20.70;100.00
7888;BME280;3989;48.810;9.208;2023-08-20T04:06:29;99118.28;;;20.65;100.00
7888;BME280;3989;48.810;9.208;2023-08-20T04:08:56;99118.19;;;20.60;100.00
7888;BME280;3989;48.810;9.208;2023-08-20T04:11:23;99127.16;;;20.60;100.00
7888;BME280;3989;48.810;9.208;2023-08-20T04:13:49;99102.03;;;20.41;100.00
7888;BME280;3989;48.810;9.208;2023-08-20T04:16:16;99130.31;;;20.57;100.00
7888;BME280;3989;48.810;9.208;2023-08-20T04:18:43;99137.06;;;20.55;100.00
7888;BME280;3989;48.810;9.208;2023-08-20T04:21:12;99135.25;;;20.49;100.00
7888;BME280;3989;48.810;9.208;2023-08-20T04:23:39;99115.91;;;20.33;100.00
7888;BME280;3989;48.810;9.208;2023-08-20T04:26:07;99116.06;;;20.38;100.00
7888;BME280;3989;48.810;9.208;2023-08-20T04:28:33;99095.03;;;20.22;100.00
7888;BME280;3989;48.810;9.208;2023-08-20T04:31:00;99129.34;;;20.40;100.00
7888;BME280;3989;48.810;9.208;2023-08-20T04:33:26;99120.28;;;20.34;100.00
7888;BME280;3989;48.810;9.208;2023-08-20T04:35:53;99059.13;;;19.97;100.00
7888;BME280;3989;48.810;9.208;2023-08-20T04:38:21;99123.81;;;20.35;100.00
7888;BME280;3989;48.810;9.208;2023-08-20T04:40:48;99119.81;;;20.37;100.00
7888;BME280;3989;48.810;9.208;2023-08-20T04:43:15;99134.09;;;20.45;100.00
7888;BME280;3989;48.810;9.208;2023-08-20T04:45:42;99102.53;;;20.20;100.00
7888;BME280;3989;48.810;9.208;2023-08-20T04:48:09;99146.34;;;20.47;100.00
7888;BME280;3989;48.810;9.208;2023-08-20T04:50:35;99146.94;;;20.49;100.00
7888;BME280;3989;48.810;9.208;2023-08-20T04:53:02;99151.53;;;20.49;100.00
7888;BME280;3989;48.810;9.208;2023-08-20T04:55:30;99148.13;;;20.53;100.00
7888;BME280;3989;48.810;9.208;2023-08-20T04:57:57;99153.78;;;20.63;100.00
7888;BME280;3989;48.810;9.208;2023-08-20T05:00:24;99153.31;;;20.78;100.00
7888;BME280;3989;48.810;9.208;2023-08-20T05:02:50;99150.28;;;20.86;100.00
7888;BME280;3989;48.810;9.208;2023-08-20T05:05:17;99153.44;;;20.94;100.00
7888;BME280;3989;48.810;9.208;2023-08-20T05:07:44;99087.41;;;20.54;100.00
7888;BME280;3989;48.810;9.208;2023-08-20T05:10:11;99156.16;;;21.06;100.00
7888;BME280;3989;48.810;9.208;2023-08-20T05:12:39;99164.31;;;21.18;100.00
7888;BME280;3989;48.810;9.208;2023-08-20T05:15:06;99172.34;;;21.24;100.00
7888;BME280;3989;48.810;9.208;2023-08-20T05:17:32;99159.22;;;21.33;100.00
7888;BME280;3989;48.810;9.208;2023-08-20T05:19:59;99132.19;;;21.38;100.00
7888;BME280;3989;48.810;9.208;2023-08-20T05:22:26;99144.28;;;21.59;100.00
7888;BME280;3989;48.810;9.208;2023-08-20T05:24:53;99132.22;;;21.66;100.00
7888;BME280;3989;48.810;9.208;2023-08-20T05:27:19;99127.06;;;21.81;100.00
7888;BME280;3989;48.810;9.208;2023-08-20T05:29:47;99120.00;;;21.80;100.00
7888;BME280;3989;48.810;9.208;2023-08-20T05:32:14;99128.97;;;21.81;100.00
7888;BME280;3989;48.810;9.208;2023-08-20T05:34:41;99129.28;;;21.84;100.00
7888;BME280;3989;48.810;9.208;2023-08-20T05:37:08;99130.63;;;21.82;100.00
7888;BME280;3989;48.810;9.208;2023-08-20T05:39:40;99164.56;;;22.08;100.00
7888;BME280;3989;48.810;9.208;2023-08-20T05:42:07;99154.84;;;22.12;100.00
7888;BME280;3989;48.810;9.208;2023-08-20T05:44:34;99077.25;;;21.76;100.00
7888;BME280;3989;48.810;9.208;2023-08-20T05:47:02;99161.91;;;22.41;100.00
7888;BME280;3989;48.810;9.208;2023-08-20T05:49:30;99155.47;;;22.47;100.00
7888;BME280;3989;48.810;9.208;2023-08-20T05:51:57;99165.97;;;22.55;100.00
7888;BME280;3989;48.810;9.208;2023-08-20T05:54:23;99174.63;;;22.69;100.00
7888;BME280;3989;48.810;9.208;2023-08-20T05:56:50;99176.69;;;22.78;100.00
7888;BME280;3989;48.810;9.208;2023-08-20T05:59:17;99179.91;;;22.92;100.00
7888;BME280;3989;48.810;9.208;2023-08-20T06:01:44;99167.44;;;22.96;100.00
7888;BME280;3989;48.810;9.208;2023-08-20T06:04:12;99183.09;;;23.22;100.00
7888;BME280;3989;48.810;9.208;2023-08-20T06:06:39;99182.31;;;23.43;100.00
7888;BME280;3989;48.810;9.208;2023-08-20T06:09:06;99178.84;;;23.70;100.00
7888;BME280;3989;48.810;9.208;2023-08-20T06:11:33;99182.88;;;23.89;100.00
7888;BME280;3989;48.810;9.208;2023-08-20T06:13:59;99183.34;;;24.08;100.00
7888;BME280;3989;48.810;9.208;2023-08-20T06:16:26;99192.06;;;24.26;100.00
7888;BME280;3989;48.810;9.208;2023-08-20T06:18:53;99199.66;;;24.24;100.00
7888;BME280;3989;48.810;9.208;2023-08-20T06:21:21;99186.25;;;23.96;100.00
7888;BME280;3989;48.810;9.208;2023-08-20T06:23:47;99181.03;;;24.16;100.00
7888;BME280;3989;48.810;9.208;2023-08-20T06:26:14;99199.66;;;24.51;100.00
7888;BME280;3989;48.810;9.208;2023-08-20T06:28:41;99200.28;;;24.58;100.00
7888;BME280;3989;48.810;9.208;2023-08-20T06:31:10;99196.00;;;24.72;100.00
7888;BME280;3989;48.810;9.208;2023-08-20T06:33:36;99192.69;;;24.65;100.00
7888;BME280;3989;48.810;9.208;2023-08-20T06:36:04;99205.78;;;24.95;100.00
7888;BME280;3989;48.810;9.208;2023-08-20T06:38:32;99122.50;;;24.61;100.00
7888;BME280;3989;48.810;9.208;2023-08-20T06:40:58;99119.22;;;24.90;100.00
7888;BME280;3989;48.810;9.208;2023-08-20T06:43:25;99199.78;;;25.35;100.00
7888;BME280;3989;48.810;9.208;2023-08-20T06:45:52;99121.25;;;24.73;100.00
7888;BME280;3989;48.810;9.208;2023-08-20T06:48:18;99183.25;;;25.15;100.00
7888;BME280;3989;48.810;9.208;2023-08-20T06:50:47;99193.34;;;25.09;100.00
7888;BME280;3989;48.810;9.208;2023-08-20T06:53:17;99181.63;;;25.14;100.00
7888;BME280;3989;48.810;9.208;2023-08-20T06:55:45;99119.66;;;25.19;100.00
7888;BME280;3989;48.810;9.208;2023-08-20T06:58:14;99126.31;;;25.38;100.00
7888;BME280;3989;48.810;9.208;2023-08-20T07:00:40;99130.25;;;25.52;100.00
7888;BME280;3989;48.810;9.208;2023-08-20T07:03:07;99177.88;;;25.77;100.00
7888;BME280;3989;48.810;9.208;2023-08-20T07:05:34;99142.34;;;25.77;100.00
7888;BME280;3989;48.810;9.208;2023-08-20T07:08:01;99174.47;;;26.17;100.00
7888;BME280;3989;48.810;9.208;2023-08-20T07:10:27;99184.91;;;26.40;100.00
7888;BME280;3989;48.810;9.208;2023-08-20T07:12:55;99208.19;;;26.52;100.00
7888;BME280;3989;48.810;9.208;2023-08-20T07:15:22;99211.44;;;26.34;100.00
7888;BME280;3989;48.810;9.208;2023-08-20T07:17:49;99210.09;;;26.42;100.00
7888;BME280;3989;48.810;9.208;2023-08-20T07:20:15;99204.84;;;26.25;100.00
7888;BME280;3989;48.810;9.208;2023-08-20T07:22:42;99207.31;;;26.17;100.00
7888;BME280;3989;48.810;9.208;2023-08-20T07:25:09;99217.75;;;26.45;100.00
7888;BME280;3989;48.810;9.208;2023-08-20T07:27:35;99222.41;;;26.59;100.00
7888;BME280;3989;48.810;9.208;2023-08-20T07:30:04;99225.69;;;26.56;100.00
7888;BME280;3989;48.810;9.208;2023-08-20T07:32:32;99214.50;;;26.73;100.00
7888;BME280;3989;48.810;9.208;2023-08-20T07:34:59;99223.56;;;27.09;100.00
7888;BME280;3989;48.810;9.208;2023-08-20T07:37:25;99229.31;;;27.12;100.00
7888;BME280;3989;48.810;9.208;2023-08-20T07:39:52;99228.75;;;27.26;100.00
7888;BME280;3989;48.810;9.208;2023-08-20T07:42:19;99161.38;;;26.74;100.00
7888;BME280;3989;48.810;9.208;2023-08-20T07:44:45;99158.34;;;26.30;100.00
7888;BME280;3989;48.810;9.208;2023-08-20T07:47:14;99219.47;;;26.96;100.00
7888;BME280;3989;48.810;9.208;2023-08-20T07:49:40;99241.66;;;27.00;100.00
7888;BME280;3989;48.810;9.208;2023-08-20T07:52:07;99238.66;;;26.81;100.00
7888;BME280;3989;48.810;9.208;2023-08-20T07:54:34;99234.81;;;26.97;100.00
7888;BME280;3989;48.810;9.208;2023-08-20T07:57:00;99245.19;;;27.21;100.00
7888;BME280;3989;48.810;9.208;2023-08-20T07:59:28;99201.13;;;27.07;100.00
7888;BME280;3989;48.810;9.208;2023-08-20T08:01:55;99246.53;;;27.58;100.00
7888;BME280;3989;48.810;9.208;2023-08-20T08:04:23;99249.28;;;27.53;100.00
7888;BME280;3989;48.810;9.208;2023-08-20T08:06:49;99241.34;;;27.22;100.00
7888;BME280;3989;48.810;9.208;2023-08-20T08:09:19;99229.59;;;27.26;100.00
7888;BME280;3989;48.810;9.208;2023-08-20T08:11:47;99243.53;;;27.40;100.00
7888;BME280;3989;48.810;9.208;2023-08-20T08:14:13;99167.41;;;27.17;100.00
7888;BME280;3989;48.810;9.208;2023-08-20T08:16:40;99226.28;;;27.49;100.00
7888;BME280;3989;48.810;9.208;2023-08-20T08:19:07;99246.19;;;27.80;100.00
7888;BME280;3989;48.810;9.208;2023-08-20T08:21:35;99250.63;;;27.71;100.00
7888;BME280;3989;48.810;9.208;2023-08-20T08:24:02;99252.78;;;27.74;100.00
7888;BME280;3989;48.810;9.208;2023-08-20T08:26:29;99258.44;;;28.08;100.00
7888;BME280;3989;48.810;9.208;2023-08-20T08:28:56;99199.03;;;27.78;100.00
7888;BME280;3989;48.810;9.208;2023-08-20T08:31:23;99257.97;;;27.91;100.00
7888;BME280;3989;48.810;9.208;2023-08-20T08:33:49;99209.22;;;27.68;100.00
7888;BME280;3989;48.810;9.208;2023-08-20T08:36:16;99251.09;;;27.93;100.00
7888;BME280;3989;48.810;9.208;2023-08-20T08:38:44;99260.66;;;27.96;100.00
7888;BME280;3989;48.810;9.208;2023-08-20T08:41:12;99256.31;;;27.95;100.00
7888;BME280;3989;48.810;9.208;2023-08-20T08:43:40;99256.34;;;27.85;100.00
7888;BME280;3989;48.810;9.208;2023-08-20T08:46:08;99242.66;;;28.34;100.00
7888;BME280;3989;48.810;9.208;2023-08-20T08:48:40;99245.41;;;28.39;100.00
7888;BME280;3989;48.810;9.208;2023-08-20T08:51:07;99260.94;;;28.58;100.00
7888;BME280;3989;48.810;9.208;2023-08-20T08:53:35;99225.75;;;28.60;100.00
7888;BME280;3989;48.810;9.208;2023-08-20T08:56:03;99258.34;;;28.77;100.00
7888;BME280;3989;48.810;9.208;2023-08-20T08:58:32;99257.59;;;28.72;100.00
7888;BME280;3989;48.810;9.208;2023-08-20T09:00:59;99264.00;;;28.52;100.00
7888;BME280;3989;48.810;9.208;2023-08-20T09:03:26;99262.59;;;28.54;100.00
7888;BME280;3989;48.810;9.208;2023-08-20T09:05:55;99242.75;;;28.24;100.00
7888;BME280;3989;48.810;9.208;2023-08-20T09:08:25;99262.00;;;28.08;100.00
7888;BME280;3989;48.810;9.208;2023-08-20T09:10:53;99173.03;;;27.66;100.00
7888;BME280;3989;48.810;9.208;2023-08-20T09:13:23;99255.03;;;28.31;100.00
7888;BME280;3989;48.810;9.208;2023-08-20T09:15:51;99259.09;;;28.44;100.00
7888;BME280;3989;48.810;9.208;2023-08-20T09:18:18;99253.59;;;28.44;100.00
7888;BME280;3989;48.810;9.208;2023-08-20T09:20:47;99261.56;;;28.89;100.00
7888;BME280;3989;48.810;9.208;2023-08-20T09:23:14;99266.69;;;29.01;100.00
7888;BME280;3989;48.810;9.208;2023-08-20T09:25:41;99243.19;;;29.18;100.00
7888;BME280;3989;48.810;9.208;2023-08-20T09:28:08;99259.09;;;29.22;100.00
7888;BME280;3989;48.810;9.208;2023-08-20T09:30:37;99097.56;;;28.22;100.00
7888;BME280;3989;48.810;9.208;2023-08-20T09:33:07;99256.50;;;29.40;100.00
7888;BME280;3989;48.810;9.208;2023-08-20T09:35:34;99265.59;;;29.36;100.00
7888;BME280;3989;48.810;9.208;2023-08-20T09:38:02;99255.25;;;29.51;100.00
7888;BME280;3989;48.810;9.208;2023-08-20T09:40:30;99247.22;;;29.31;100.00
7888;BME280;3989;48.810;9.208;2023-08-20T09:42:57;99241.59;;;29.41;100.00
7888;BME280;3989;48.810;9.208;2023-08-20T09:45:24;99252.41;;;29.61;100.00
7888;BME280;3989;48.810;9.208;2023-08-20T09:47:55;99255.44;;;29.60;100.00
7888;BME280;3989;48.810;9.208;2023-08-20T09:50:22;99249.72;;;29.56;100.00
7888;BME280;3989;48.810;9.208;2023-08-20T09:52:56;99270.00;;;29.60;100.00
7888;BME280;3989;48.810;9.208;2023-08-20T09:55:29;99262.00;;;29.40;100.00
7888;BME280;3989;48.810;9.208;2023-08-20T09:57:57;99249.09;;;29.02;100.00
7888;BME280;3989;48.810;9.208;2023-08-20T10:00:25;99253.44;;;29.42;100.00
7888;BME280;3989;48.810;9.208;2023-08-20T10:02:54;99254.78;;;29.44;100.00
7888;BME280;3989;48.810;9.208;2023-08-20T10:05:23;99248.63;;;29.29;100.00
7888;BME280;3989;48.810;9.208;2023-08-20T10:07:50;99244.38;;;29.65;100.00
7888;BME280;3989;48.810;9.208;2023-08-20T10:10:17;99242.50;;;29.60;100.00
7888;BME280;3989;48.810;9.208;2023-08-20T10:12:44;99220.03;;;29.53;100.00
7888;BME280;3989;48.810;9.208;2023-08-20T10:15:14;99242.47;;;29.65;100.00
7888;BME280;3989;48.810;9.208;2023-08-20T10:17:42;99220.50;;;29.60;100.00
7888;BME280;3989;48.810;9.208;2023-08-20T10:20:13;99240.19;;;29.96;100.00
7888;BME280;3989;48.810;9.208;2023-08-20T10:22:41;99237.63;;;30.05;100.00
7888;BME280;3989;48.810;9.208;2023-08-20T10:25:08;99221.09;;;29.57;100.00
7888;BME280;3989;48.810;9.208;2023-08-20T10:27:37;99241.63;;;30.12;100.00
7888;BME280;3989;48.810;9.208;2023-08-20T10:30:08;99252.59;;;30.17;100.00
7888;BME280;3989;48.810;9.208;2023-08-20T10:32:44;99246.50;;;30.20;100.00
7888;BME280;3989;48.810;9.208;2023-08-20T10:35:13;99248.75;;;30.37;98.19
7888;BME280;3989;48.810;9.208;2023-08-20T10:38:00;99239.72;;;30.32;97.73
7888;BME280;3989;48.810;9.208;2023-08-20T10:40:49;99250.72;;;30.55;94.94
7888;BME280;3989;48.810;9.208;2023-08-20T10:43:29;99243.84;;;30.71;87.27
7888;BME280;3989;48.810;9.208;2023-08-20T10:46:06;99171.56;;;30.24;82.30
7888;BME280;3989;48.810;9.208;2023-08-20T10:48:35;99249.28;;;30.58;86.52
7888;BME280;3989;48.810;9.208;2023-08-20T10:51:11;99228.59;;;30.60;83.99
7888;BME280;3989;48.810;9.208;2023-08-20T10:53:40;99245.28;;;30.69;89.49
7888;BME280;3989;48.810;9.208;2023-08-20T10:56:14;99237.44;;;30.76;84.27
7888;BME280;3989;48.810;9.208;2023-08-20T10:58:43;99250.66;;;30.93;82.59
7888;BME280;3989;48.810;9.208;2023-08-20T11:01:17;99254.19;;;30.80;80.45
7888;BME280;3989;48.810;9.208;2023-08-20T11:03:45;99242.69;;;30.59;84.67
7888;BME280;3989;48.810;9.208;2023-08-20T11:06:13;99241.22;;;30.80;84.39
7888;BME280;3989;48.810;9.208;2023-08-20T11:08:41;99234.25;;;31.20;82.96
7888;BME280;3989;48.810;9.208;2023-08-20T11:11:08;99233.13;;;31.53;77.83
7888;BME280;3989;48.810;9.208;2023-08-20T11:13:35;99214.19;;;31.47;75.43
7888;BME280;3989;48.810;9.208;2023-08-20T11:16:03;99227.00;;;31.56;71.11
7888;BME280;3989;48.810;9.208;2023-08-20T11:18:30;99232.63;;;31.65;69.55
7888;BME280;3989;48.810;9.208;2023-08-20T11:20:57;99237.13;;;31.74;70.40
7888;BME280;3989;48.810;9.208;2023-08-20T11:23:25;99226.25;;;31.51;67.36
7888;BME280;3989;48.810;9.208;2023-08-20T11:25:52;99227.72;;;31.76;68.03
7888;BME280;3989;48.810;9.208;2023-08-20T11:28:20;99229.16;;;31.59;64.32
7888;BME280;3989;48.810;9.208;2023-08-20T11:30:46;99224.69;;;31.45;65.11
7888;BME280;3989;48.810;9.208;2023-08-20T11:33:13;99228.88;;;31.42;63.89
7888;BME280;3989;48.810;9.208;2023-08-20T11:35:41;99227.06;;;31.05;68.93
7888;BME280;3989;48.810;9.208;2023-08-20T11:38:09;99220.00;;;30.99;68.37
7888;BME280;3989;48.810;9.208;2023-08-20T11:40:37;99214.03;;;31.24;63.11
7888;BME280;3989;48.810;9.208;2023-08-20T11:43:04;99232.44;;;31.29;62.61
7888;BME280;3989;48.810;9.208;2023-08-20T11:45:30;99114.59;;;30.75;60.78
7888;BME280;3989;48.810;9.208;2023-08-20T11:47:58;99150.44;;;31.21;59.16
7888;BME280;3989;48.810;9.208;2023-08-20T11:50:24;99228.03;;;31.88;59.23
7888;BME280;3989;48.810;9.208;2023-08-20T11:52:52;99228.75;;;31.66;60.89
7888;BME280;3989;48.810;9.208;2023-08-20T11:55:22;99232.09;;;31.90;57.85
7888;BME280;3989;48.810;9.208;2023-08-20T11:57:51;99225.56;;;32.00;56.80
7888;BME280;3989;48.810;9.208;2023-08-20T12:00:25;99228.47;;;32.08;55.43
7888;BME280;3989;48.810;9.208;2023-08-20T12:02:53;99212.38;;;31.97;56.37
7888;BME280;3989;48.810;9.208;2023-08-20T12:05:20;99208.09;;;32.18;56.41
7888;BME280;3989;48.810;9.208;2023-08-20T12:07:55;99208.44;;;32.39;54.22
7888;BME280;3989;48.810;9.208;2023-08-20T12:10:23;99215.25;;;32.55;52.94
7888;BME280;3989;48.810;9.208;2023-08-20T12:12:51;99215.69;;;32.35;52.65
7888;BME280;3989;48.810;9.208;2023-08-20T12:15:18;99206.66;;;32.56;52.32
7888;BME280;3989;48.810;9.208;2023-08-20T12:17:58;99208.63;;;32.42;51.91
7888;BME280;3989;48.810;9.208;2023-08-20T12:20:28;99198.63;;;32.33;52.74
7888;BME280;3989;48.810;9.208;2023-08-20T12:22:56;99171.66;;;32.16;51.85
7888;BME280;3989;48.810;9.208;2023-08-20T12:25:23;99178.72;;;32.22;50.85
7888;BME280;3989;48.810;9.208;2023-08-20T12:27:51;99213.91;;;32.52;49.83
7888;BME280;3989;48.810;9.208;2023-08-20T12:30:17;99200.66;;;32.41;50.29
7888;BME280;3989;48.810;9.208;2023-08-20T12:32:44;99194.47;;;32.57;50.20
7888;BME280;3989;48.810;9.208;2023-08-20T12:35:11;99191.50;;;32.54;49.61
7888;BME280;3989;48.810;9.208;2023-08-20T12:37:38;99197.66;;;32.51;48.76
7888;BME280;3989;48.810;9.208;2023-08-20T12:40:06;99195.91;;;32.55;49.02
7888;BME280;3989;48.810;9.208;2023-08-20T12:42:36;99185.66;;;32.55;49.97
7888;BME280;3989;48.810;9.208;2023-08-20T12:45:06;99187.31;;;32.56;49.75
7888;BME280;3989;48.810;9.208;2023-08-20T12:47:33;99163.78;;;32.81;47.74
7888;BME280;3989;48.810;9.208;2023-08-20T12:49:59;99184.75;;;33.04;47.35
7888;BME280;3989;48.810;9.208;2023-08-20T12:52:26;99183.25;;;33.20;47.59
7888;BME280;3989;48.810;9.208;2023-08-20T12:54:52;99048.56;;;32.37;47.73
7888;BME280;3989;48.810;9.208;2023-08-20T12:57:19;99159.63;;;32.70;47.73
7888;BME280;3989;48.810;9.208;2023-08-20T12:59:46;99179.88;;;32.79;47.81
7888;BME280;3989;48.810;9.208;2023-08-20T13:02:14;99154.84;;;32.84;47.89
7888;BME280;3989;48.810;9.208;2023-08-20T13:04:41;99180.09;;;32.91;47.29
7888;BME280;3989;48.810;9.208;2023-08-20T13:07:08;99178.88;;;33.06;47.35
7888;BME280;3989;48.810;9.208;2023-08-20T13:09:35;99176.28;;;33.32;46.50
7888;BME280;3989;48.810;9.208;2023-08-20T13:12:02;99161.31;;;33.33;45.52
7888;BME280;3989;48.810;9.208;2023-08-20T13:14:31;99168.41;;;33.16;45.73
7888;BME280;3989;48.810;9.208;2023-08-20T13:16:58;99159.78;;;33.57;46.04